Huvudsida
METAR-TAF:

METAR-TAF

Flygplatser :

Al Jawf, Saudiarabien

latitud: 29-47N, longitud: 040-06E, höjd: 689 m

Aktuellt väderrapport

Denna rapport gjordes för 18 minuter sedan, klockan 23:00 UTC
Stilla vind
Temperatur 26°C
Fuktighet 26%
Tryck 1021 hPa
Sikt 10 km eller mer
Inga moln under 1 500 m eller inga cumulonimbus

METAR: OESK 132300Z 00000KT CAVOK 26/05 Q1021

Tid: 02:18 (23:18 UTC)

Väderprognos

Denna rapport gjordes för 12 timmar och 18 minuter sedan, klockan 11:00 UTC
Prognos gäller från 13 kl. 12 UTC till 14 kl. 18 UTC
Vind 8 kt från ost
Sikt 10 km eller mer
Spridda moln på en höjd av 4000 ft
Spridda moln på en höjd av 10000 ft
Temporärt
från 13 kl. 12 UTC till 13 kl. 22 UTC
Sikt: 6000 m
Brutna moln på en höjd av 4000 ft
Få moln på en höjd av 3500 ft, Cumulonimbus.
åska, regn
Blir
från 13 kl. 18 UTC till 13 kl. 20 UTC
Vind 3 kt varierande vindriktning

TAF: OESK 131100Z 1312/1418 08008KT 9999 SCT040 SCT100 TEMPO 1312/1322 6000 TSRA BKN040 FEW035CB BECMG 1318/1320 VRB03KT

Aktuella väderrapporter och prognoser från 4000 flygplatser (METAR- och TAF-rapporter).

De tillgängliga stationerna syns som gula och röda prickar på kartan.

För musen över prickarna för att se namnen på stationerna.

Klicka sedan för att få väderrapporter och prognoser.

För att ändra kartan: Klicka på de gröna knapparna med ett svart kors på för att zooma in; den gröna knappen med ett streck på för att zooma ut; eller på de gröna pilarna för angränsande kartor.


METAR-TAF: